Time;durP1;ratioP1;P1;durP2;ratioP2;P2;SDS_P1;SDS_P2;PMS_P1;PMS_P2;Temp;Humidity;BMP_temperature;BMP_pressure;BME280_temperature;BME280_humidity;BME280_pressure;Samples;Min_cycle;Max_cycle;Signal;HPM_P1;HPM_P2
2021/12/11 00:00:56;;;;;;;1.90;0.93;;;4.60;99.90;;;;;;5055243;28;20021;-65
2021/12/11 00:03:27;;;;;;;1.75;0.75;;;4.50;99.90;;;;;;5053503;28;20021;-64
2021/12/11 00:06:08;;;;;;;1.83;1.10;;;4.60;99.90;;;;;;5053012;28;20071;-66
2021/12/11 00:08:34;;;;;;;2.88;0.88;;;4.50;99.90;;;;;;5053197;28;20043;-66
2021/12/11 00:11:08;;;;;;;1.85;0.80;;;4.60;99.90;;;;;;5052887;28;20056;-66
2021/12/11 00:13:40;;;;;;;1.48;0.60;;;4.60;99.90;;;;;;5034895;28;20033;-68
2021/12/11 00:16:08;;;;;;;2.53;0.90;;;4.50;99.90;;;;;;5053270;28;20023;-65
2021/12/11 00:18:34;;;;;;;2.13;1.05;;;4.50;99.90;;;;;;5053062;28;20154;-66
2021/12/11 00:21:08;;;;;;;2.25;1.10;;;4.50;99.90;;;;;;5052755;28;20017;-65
2021/12/11 00:23:39;;;;;;;2.50;1.30;;;4.50;99.90;;;;;;5052815;28;20037;-68
2021/12/11 00:26:09;;;;;;;2.08;1.20;;;4.50;99.90;;;;;;5052948;28;20024;-67
2021/12/11 00:28:46;;;;;;;2.08;1.10;;;4.50;99.90;;;;;;5035024;28;20433;-66
2021/12/11 00:31:13;;;;;;;3.38;1.48;;;4.50;99.90;;;;;;5052708;28;20025;-65
2021/12/11 00:33:38;;;;;;;3.10;1.35;;;4.50;99.90;;;;;;5052859;28;20029;-67
2021/12/11 00:36:13;;;;;;;2.53;1.23;;;4.50;99.90;;;;;;5052857;28;20436;-67
2021/12/11 00:38:40;;;;;;;2.70;1.70;;;4.40;99.90;;;;;;5052680;28;20024;-67
2021/12/11 00:41:10;;;;;;;2.03;1.15;;;4.40;99.90;;;;;;5053128;28;20025;-66
2021/12/11 00:43:37;;;;;;;2.00;1.10;;;4.40;99.90;;;;;;5053679;28;20025;-66
2021/12/11 00:46:06;;;;;;;1.27;0.98;;;4.30;99.90;;;;;;5034713;28;20055;-66
2021/12/11 00:48:32;;;;;;;2.58;1.50;;;4.30;99.90;;;;;;5038077;28;20036;-65
2021/12/11 00:51:07;;;;;;;2.65;1.20;;;4.30;99.90;;;;;;5056752;28;20078;-66
2021/12/11 00:53:37;;;;;;;2.17;1.17;;;4.20;99.90;;;;;;5056436;28;20032;-65
2021/12/11 00:56:13;;;;;;;1.67;1.25;;;4.20;99.90;;;;;;5038028;28;20025;-66
2021/12/11 00:58:41;;;;;;;2.88;1.67;;;4.30;99.90;;;;;;5055997;28;20022;-66
2021/12/11 01:01:06;;;;;;;2.55;1.25;;;4.30;99.90;;;;;;5055944;28;20052;-66
2021/12/11 01:03:48;;;;;;;2.83;1.40;;;4.30;99.90;;;;;;5055608;28;20082;-66
2021/12/11 01:06:23;;;;;;;1.80;1.15;;;4.30;99.90;;;;;;5055963;28;20036;-66
2021/12/11 01:08:57;;;;;;;2.80;1.10;;;4.30;99.90;;;;;;5056010;28;20182;-67
2021/12/11 01:11:42;;;;;;;2.55;1.50;;;4.30;99.90;;;;;;5037780;28;20047;-66
2021/12/11 01:14:24;;;;;;;3.20;1.50;;;4.20;99.90;;;;;;5055568;28;20082;-67
2021/12/11 01:17:00;;;;;;;2.15;1.30;;;4.20;99.90;;;;;;5055578;28;20025;-66
2021/12/11 01:19:28;;;;;;;2.28;1.45;;;4.20;99.90;;;;;;5056206;28;20372;-66
2021/12/11 01:21:58;;;;;;;2.78;1.95;;;4.20;99.90;;;;;;5055334;28;20021;-66
2021/12/11 01:24:41;;;;;;;2.78;1.63;;;4.20;99.90;;;;;;5037606;28;20036;-66
2021/12/11 01:27:08;;;;;;;1.63;1.48;;;4.20;99.90;;;;;;5055494;28;20025;-66
2021/12/11 01:29:35;;;;;;;2.65;1.52;;;4.20;99.90;;;;;;5055435;28;20095;-67
2021/12/11 01:32:02;;;;;;;;;;;4.10;99.90;;;;;;5037704;28;20083;-66
2021/12/11 01:34:29;;;;;;;2.15;1.50;;;4.20;99.90;;;;;;5055151;28;19909;-67
2021/12/11 01:36:56;;;;;;;5.28;1.60;;;4.20;99.90;;;;;;5055386;28;20029;-66
2021/12/11 01:39:25;;;;;;;2.53;1.70;;;4.20;99.90;;;;;;5055471;28;20083;-66
2021/12/11 01:41:54;;;;;;;2.50;1.73;;;4.10;99.90;;;;;;5037469;28;20129;-65
2021/12/11 01:44:29;;;;;;;2.50;1.80;;;4.10;99.90;;;;;;5055519;28;20501;-65
2021/12/11 01:47:11;;;;;;;2.92;1.80;;;4.10;99.90;;;;;;5055291;28;20390;-66
2021/12/11 01:49:40;;;;;;;2.13;1.50;;;4.10;99.90;;;;;;5055150;28;20189;-67
2021/12/11 01:52:14;;;;;;;3.15;2.10;;;4.10;99.90;;;;;;5054839;28;20494;-67
2021/12/11 01:54:44;;;;;;;4.07;1.90;;;4.10;99.90;;;;;;5055067;28;20371;-66
2021/12/11 01:57:21;;;;;;;2.97;1.83;;;4.10;99.90;;;;;;5055049;28;20017;-66
2021/12/11 01:59:53;;;;;;;5.68;2.05;;;4.20;99.90;;;;;;5054592;28;20029;-65
2021/12/11 02:02:26;;;;;;;2.75;1.75;;;4.10;99.90;;;;;;5054878;28;20432;-66
2021/12/11 02:04:53;;;;;;;2.50;1.70;;;4.10;99.90;;;;;;5055052;28;20044;-65
2021/12/11 02:07:41;;;;;;;2.42;1.70;;;4.10;99.90;;;;;;5036556;28;20102;-66
2021/12/11 02:10:27;;;;;;;3.42;1.88;;;4.20;99.90;;;;;;5058948;28;20059;-67
2021/12/11 02:12:53;;;;;;;2.90;1.80;;;4.20;99.90;;;;;;5062609;28;20090;-67
2021/12/11 02:15:28;;;;;;;2.92;1.73;;;4.20;99.90;;;;;;5056324;28;20017;-67
2021/12/11 02:17:59;;;;;;;2.05;1.60;;;4.20;99.90;;;;;;5056347;28;20021;-66
2021/12/11 02:20:37;;;;;;;3.08;1.85;;;4.20;99.90;;;;;;5056459;28;20074;-65
2021/12/11 02:23:05;;;;;;;4.28;2.67;;;4.20;99.90;;;;;;5037283;28;20457;-65
2021/12/11 02:25:39;;;;;;;3.65;2.40;;;4.20;99.90;;;;;;5054659;28;20024;-66
2021/12/11 02:28:08;;;;;;;3.38;1.83;;;4.20;99.90;;;;;;5054864;28;20025;-65
2021/12/11 02:30:43;;;;;;;2.85;1.73;;;4.10;99.90;;;;;;5054661;28;20028;-66
2021/12/11 02:33:25;;;;;;;3.63;1.90;;;4.10;99.90;;;;;;5054686;28;20036;-66
2021/12/11 02:35:56;;;;;;;2.22;1.67;;;4.10;99.90;;;;;;5054112;28;20450;-66
2021/12/11 02:38:33;;;;;;;2.05;1.65;;;4.00;99.90;;;;;;5036249;28;20025;-65
2021/12/11 02:41:08;;;;;;;2.67;1.90;;;4.00;99.90;;;;;;5054239;28;20048;-65
2021/12/11 02:43:42;;;;;;;2.97;1.92;;;3.90;99.90;;;;;;5055099;28;20256;-66
2021/12/11 02:46:20;;;;;;;2.38;1.63;;;3.90;99.90;;;;;;5054072;28;20025;-66
2021/12/11 02:48:56;;;;;;;2.60;1.75;;;3.90;99.90;;;;;;5054049;28;20525;-66
2021/12/11 02:51:31;;;;;;;1.75;1.63;;;3.90;99.90;;;;;;5053759;28;20040;-67
2021/12/11 02:54:07;;;;;;;2.45;1.90;;;3.80;99.90;;;;;;5053906;28;20047;-67
2021/12/11 02:56:38;;;;;;;2.45;1.88;;;3.80;99.90;;;;;;5053886;28;20017;-67
2021/12/11 02:59:09;;;;;;;11.63;6.60;;;3.80;99.90;;;;;;5053801;28;20589;-66
2021/12/11 03:01:50;;;;;;;2.83;1.95;;;3.80;99.90;;;;;;5053843;28;20040;-66
2021/12/11 03:04:28;;;;;;;4.35;2.88;;;3.80;99.90;;;;;;5053533;28;20025;-66
2021/12/11 03:06:56;;;;;;;3.22;1.90;;;3.80;99.90;;;;;;5053730;28;20029;-66
2021/12/11 03:09:28;;;;;;;2.25;1.85;;;3.70;99.90;;;;;;5053656;28;20032;-67
2021/12/11 03:11:55;;;;;;;4.25;2.47;;;3.80;99.90;;;;;;5052930;28;20036;-66
2021/12/11 03:14:24;;;;;;;2.78;2.17;;;3.70;99.90;;;;;;5053663;28;20086;-67
2021/12/11 03:16:51;;;;;;;2.85;2.13;;;3.70;99.90;;;;;;5053473;28;20025;-66
2021/12/11 03:19:20;;;;;;;3.35;2.40;;;3.70;99.90;;;;;;5053455;28;20382;-66
2021/12/11 03:21:47;;;;;;;3.42;2.72;;;3.80;99.90;;;;;;5053053;28;20112;-66
2021/12/11 03:24:13;;;;;;;4.15;2.85;;;3.80;99.90;;;;;;5053125;28;20033;-67
2021/12/11 03:26:40;;;;;;;3.45;2.78;;;3.70;99.90;;;;;;5053553;28;20029;-66
2021/12/11 03:29:08;;;;;;;3.50;2.72;;;3.80;99.90;;;;;;5053384;28;20029;-67
2021/12/11 03:31:36;;;;;;;4.07;2.72;;;3.80;99.90;;;;;;5053709;28;20021;-66
2021/12/11 03:34:06;;;;;;;4.05;3.15;;;3.80;99.90;;;;;;5053336;28;20100;-66
2021/12/11 03:36:33;;;;;;;4.40;2.90;;;3.80;99.90;;;;;;5053439;28;20359;-66
2021/12/11 03:39:04;;;;;;;3.75;3.10;;;3.80;99.90;;;;;;5052923;28;20486;-67
2021/12/11 03:41:31;;;;;;;3.90;3.08;;;3.80;99.90;;;;;;5052654;28;20547;-67
2021/12/11 03:43:57;;;;;;;5.82;3.60;;;3.80;99.90;;;;;;5052963;28;20033;-66
2021/12/11 03:46:23;;;;;;;5.70;3.08;;;3.80;99.90;;;;;;5034923;28;20032;-66
2021/12/11 03:48:53;;;;;;;5.93;3.55;;;3.80;99.90;;;;;;5052846;28;20033;-66
2021/12/11 03:51:23;;;;;;;4.47;3.03;;;3.80;99.90;;;;;;5053070;28;20025;-66
2021/12/11 03:53:49;;;;;;;4.65;3.00;;;3.80;99.90;;;;;;5034786;28;20025;-66
2021/12/11 03:56:17;;;;;;;5.15;3.60;;;3.80;99.90;;;;;;5052885;28;20547;-66
2021/12/11 03:58:49;;;;;;;7.57;4.13;;;3.80;99.90;;;;;;5052683;28;20119;-66
2021/12/11 04:01:22;;;;;;;13.43;5.13;;;3.80;99.90;;;;;;5052977;28;20103;-65
2021/12/11 04:03:50;;;;;;;5.05;4.10;;;3.80;99.90;;;;;;5053145;28;20155;-66
2021/12/11 04:06:17;;;;;;;5.38;4.25;;;3.80;99.90;;;;;;5053434;28;20422;-66
2021/12/11 04:08:44;;;;;;;6.22;4.57;;;3.80;99.90;;;;;;5035200;28;20029;-66
2021/12/11 04:11:13;;;;;;;7.13;4.63;;;3.80;99.90;;;;;;5053290;28;20033;-66
2021/12/11 04:13:39;;;;;;;6.65;4.93;;;3.90;99.90;;;;;;5052858;28;20434;-66
2021/12/11 04:16:06;;;;;;;7.43;4.77;;;3.90;99.90;;;;;;5053120;28;20048;-66
2021/12/11 04:18:32;;;;;;;6.60;4.95;;;3.90;99.90;;;;;;5052835;28;20018;-66
2021/12/11 04:20:58;;;;;;;7.82;5.13;;;3.90;99.90;;;;;;5053134;28;20044;-66
2021/12/11 04:23:24;;;;;;;6.95;4.97;;;3.90;99.90;;;;;;5063784;28;20048;-66
2021/12/11 04:25:52;;;;;;;7.67;5.83;;;3.90;99.90;;;;;;5057996;28;20021;-65
2021/12/11 04:28:20;;;;;;;8.68;5.55;;;3.90;99.90;;;;;;5056363;28;20108;-66
2021/12/11 04:30:49;;;;;;;6.63;5.15;;;4.00;99.90;;;;;;5056693;28;20025;-66
2021/12/11 04:33:15;;;;;;;11.65;7.07;;;4.00;99.90;;;;;;5056118;28;20021;-66
2021/12/11 04:35:43;;;;;;;8.77;5.95;;;4.00;99.90;;;;;;5056271;28;20017;-66
2021/12/11 04:38:10;;;;;;;8.48;6.35;;;4.00;99.90;;;;;;5056375;28;20025;-66
2021/12/11 04:40:40;;;;;;;8.10;5.90;;;4.00;99.90;;;;;;5056379;28;20452;-66
2021/12/11 04:43:15;;;;;;;7.68;5.93;;;3.90;99.90;;;;;;5056351;28;20024;-66
2021/12/11 04:45:59;;;;;;;7.13;5.38;;;4.00;99.90;;;;;;5056476;28;20025;-66
2021/12/11 04:48:53;;;;;;;8.23;6.05;;;4.00;99.90;;;;;;5038279;28;20084;-66
2021/12/11 04:54:32;;;;;;;8.52;6.30;;;3.90;99.90;;;;;;5018103;28;20120;-66
2021/12/11 04:57:25;;;;;;;7.93;5.88;;;3.90;99.90;;;;;;5056213;28;20032;-66
2021/12/11 05:10:35;;;;;;;8.82;6.43;;;3.90;99.90;;;;;;5056033;28;20025;-66
2021/12/11 05:13:01;;;;;;;9.27;6.18;;;3.90;99.90;;;;;;5055895;28;20032;-67
2021/12/11 05:15:34;;;;;;;9.30;6.25;;;4.00;99.90;;;;;;5055627;28;20397;-66
2021/12/11 05:18:01;;;;;;;8.68;6.15;;;4.00;99.90;;;;;;5055757;28;20025;-66
2021/12/11 05:20:32;;;;;;;9.05;6.70;;;4.00;99.90;;;;;;5055589;28;20112;-66
2021/12/11 05:22:58;;;;;;;10.40;6.75;;;3.90;99.90;;;;;;5055198;28;20037;-67
2021/12/11 05:25:24;;;;;;;9.50;6.78;;;3.90;99.90;;;;;;5037442;28;20074;-65
2021/12/11 05:27:51;;;;;;;10.07;6.83;;;3.90;99.90;;;;;;5055291;28;20033;-65
2021/12/11 05:30:23;;;;;;;8.68;6.80;;;4.00;99.90;;;;;;5055574;28;20353;-65
2021/12/11 05:32:49;;;;;;;9.00;6.50;;;4.00;99.90;;;;;;5054811;28;20020;-66
2021/12/11 05:35:16;;;;;;;;;;;3.90;99.90;;;;;;5055380;28;20470;-66
2021/12/11 05:37:42;;;;;;;9.15;6.68;;;4.00;99.90;;;;;;5037211;28;20007;-66
2021/12/11 05:40:09;;;;;;;9.75;6.70;;;4.00;99.90;;;;;;5055099;28;20029;-66
2021/12/11 05:42:34;;;;;;;11.60;7.03;;;4.00;99.90;;;;;;5054841;28;20457;-66
2021/12/11 05:45:04;;;;;;;11.70;7.77;;;3.90;99.90;;;;;;5055453;28;20112;-65
2021/12/11 05:47:30;;;;;;;10.30;7.35;;;4.00;99.90;;;;;;5037062;28;20025;-66
2021/12/11 05:49:57;;;;;;;10.10;7.25;;;4.00;99.90;;;;;;5055073;28;20036;-67
2021/12/11 05:52:23;;;;;;;11.60;7.68;;;4.00;99.90;;;;;;5037522;28;20091;-66
2021/12/11 05:54:50;;;;;;;11.93;7.97;;;4.00;99.90;;;;;;5054911;28;20025;-65
2021/12/11 05:57:19;;;;;;;12.75;7.85;;;4.00;99.90;;;;;;5054877;28;20024;-65
2021/12/11 05:59:46;;;;;;;11.50;8.10;;;4.00;99.90;;;;;;5055127;28;20477;-65
2021/12/11 06:02:20;;;;;;;11.98;8.18;;;4.10;99.90;;;;;;5054716;28;20474;-65
2021/12/11 06:04:49;;;;;;;9.43;7.13;;;4.00;99.90;;;;;;5039416;28;20099;-66
2021/12/11 06:07:16;;;;;;;11.23;7.50;;;4.00;99.90;;;;;;5042212;28;20025;-63
2021/12/11 06:09:47;;;;;;;11.18;7.65;;;4.10;99.90;;;;;;5054330;28;20044;-63
2021/12/11 06:12:16;;;;;;;11.68;7.80;;;4.10;99.90;;;;;;5054521;28;20029;-62
2021/12/11 06:14:45;;;;;;;12.75;8.10;;;4.00;99.90;;;;;;5054384;28;20044;-64
2021/12/11 06:17:15;;;;;;;11.50;8.25;;;4.10;99.90;;;;;;5055354;28;20023;-64
2021/12/11 06:19:50;;;;;;;12.18;8.32;;;4.10;99.90;;;;;;5054925;28;20025;-62
2021/12/11 06:22:16;;;;;;;10.63;8.35;;;4.10;99.90;;;;;;5054884;28;20515;-63
2021/12/11 06:24:42;;;;;;;14.60;9.27;;;4.10;99.90;;;;;;5054339;28;20021;-64
2021/12/11 06:27:08;;;;;;;13.10;8.57;;;4.00;99.90;;;;;;5054807;28;20573;-64
2021/12/11 06:29:34;;;;;;;11.63;8.57;;;4.10;99.90;;;;;;5054362;28;20256;-64
2021/12/11 06:31:59;;;;;;;13.00;8.40;;;4.00;99.90;;;;;;5054470;28;20024;-64
2021/12/11 06:34:25;;;;;;;12.23;9.05;;;4.00;99.90;;;;;;5054362;28;20029;-64
2021/12/11 06:36:52;;;;;;;13.40;9.40;;;4.00;99.90;;;;;;5054330;28;20024;-64
2021/12/11 06:39:21;;;;;;;14.77;9.75;;;4.00;99.90;;;;;;5036043;28;20029;-64
2021/12/11 06:41:50;;;;;;;16.23;9.88;;;3.90;99.90;;;;;;5054031;28;20021;-64
2021/12/11 06:44:17;;;;;;;15.73;9.85;;;4.10;99.90;;;;;;5054102;28;20033;-65
2021/12/11 06:46:43;;;;;;;15.45;10.38;;;4.00;99.90;;;;;;5053814;28;20020;-65
2021/12/11 06:49:09;;;;;;;13.93;9.85;;;3.90;99.90;;;;;;5035955;28;20497;-66
2021/12/11 06:51:36;;;;;;;13.27;9.70;;;3.90;99.90;;;;;;5054172;28;20033;-65
2021/12/11 06:54:10;;;;;;;;;;;3.90;99.90;;;;;;5054103;28;20056;-66
2021/12/11 06:56:40;;;;;;;15.77;10.38;;;3.90;99.90;;;;;;5053886;28;19904;-66
2021/12/11 06:59:07;;;;;;;14.90;10.32;;;3.80;99.90;;;;;;5054161;28;20020;-65
2021/12/11 07:01:32;;;;;;;15.75;10.70;;;3.80;99.90;;;;;;5053965;28;20417;-65
2021/12/11 07:03:59;;;;;;;19.08;11.90;;;3.90;99.90;;;;;;5036314;28;20025;-65
2021/12/11 07:06:27;;;;;;;18.00;11.25;;;3.80;99.90;;;;;;5053808;28;20100;-65
2021/12/11 07:08:53;;;;;;;14.80;10.23;;;3.80;99.90;;;;;;5053589;28;20053;-66
2021/12/11 07:11:20;;;;;;;;;;;3.90;99.90;;;;;;5053927;28;20107;-66
2021/12/11 07:13:46;;;;;;;19.85;12.55;;;3.90;99.90;;;;;;5053195;28;19995;-66
2021/12/11 07:16:12;;;;;;;15.67;10.93;;;3.80;99.90;;;;;;5053475;28;20426;-65
2021/12/11 07:18:38;;;;;;;16.63;10.43;;;3.90;99.90;;;;;;5053044;28;20044;-65
2021/12/11 07:21:05;;;;;;;17.90;10.95;;;3.90;99.90;;;;;;5052866;28;20378;-65
2021/12/11 07:23:31;;;;;;;17.48;11.00;;;3.80;99.90;;;;;;5054032;28;20037;-64
2021/12/11 07:26:02;;;;;;;17.60;11.75;;;3.80;99.90;;;;;;5036506;28;20025;-67
2021/12/11 07:28:28;;;;;;;20.35;11.90;;;3.80;99.90;;;;;;5053618;28;20029;-66
2021/12/11 07:30:57;;;;;;;16.90;11.35;;;3.80;99.90;;;;;;5052621;28;20047;-66
2021/12/11 07:33:23;;;;;;;18.60;12.27;;;3.80;99.90;;;;;;5052489;28;20024;-70
2021/12/11 07:35:50;;;;;;;17.73;11.95;;;3.80;99.90;;;;;;5053303;28;20359;-66
2021/12/11 07:38:17;;;;;;;17.40;11.52;;;3.80;99.90;;;;;;5035207;28;20394;-67
2021/12/11 07:40:47;;;;;;;18.15;11.70;;;3.80;99.90;;;;;;5053171;28;20470;-68
2021/12/11 07:43:14;;;;;;;19.48;12.30;;;3.80;99.90;;;;;;5053021;28;20120;-68
2021/12/11 07:45:39;;;;;;;;;;;3.90;99.90;;;;;;5035675;28;20075;-69
2021/12/11 07:48:06;;;;;;;19.25;11.98;;;3.90;99.90;;;;;;5062972;28;19904;-69
2021/12/11 07:50:32;;;;;;;20.85;12.85;;;3.90;99.90;;;;;;5046269;28;20024;-69
2021/12/11 07:52:58;;;;;;;27.10;14.43;;;3.80;99.90;;;;;;5053803;28;20029;-68
2021/12/11 07:55:24;;;;;;;24.20;13.40;;;3.80;99.90;;;;;;5053576;28;20382;-68
2021/12/11 07:57:50;;;;;;;25.77;14.77;;;3.90;99.90;;;;;;5055988;28;20017;-68
2021/12/11 08:00:20;;;;;;;25.38;13.57;;;3.90;99.90;;;;;;5039369;28;20489;-68
2021/12/11 08:02:46;;;;;;;20.90;12.85;;;4.00;99.90;;;;;;5057807;28;20068;-67
2021/12/11 08:05:12;;;;;;;;;;;4.00;99.90;;;;;;5059758;28;20052;-68
2021/12/11 08:07:38;;;;;;;19.67;11.80;;;4.00;99.90;;;;;;5058200;28;19974;-70
2021/12/11 08:10:08;;;;;;;19.77;11.50;;;3.90;99.90;;;;;;5060573;28;20025;-69
2021/12/11 08:12:34;;;;;;;18.75;11.77;;;4.00;99.90;;;;;;5042001;28;20029;-69
2021/12/11 08:15:00;;;;;;;17.43;11.80;;;4.10;99.90;;;;;;5041545;28;20500;-68
2021/12/11 08:17:26;;;;;;;19.60;11.00;;;4.00;99.90;;;;;;5041322;28;20025;-67
2021/12/11 08:19:51;;;;;;;16.53;10.67;;;3.90;99.90;;;;;;5040211;28;20394;-69
2021/12/11 08:22:17;;;;;;;17.30;11.40;;;3.90;99.90;;;;;;5056823;28;20275;-68
2021/12/11 08:24:43;;;;;;;17.02;11.23;;;3.90;99.90;;;;;;5039027;28;20041;-68
2021/12/11 08:27:17;;;;;;;16.87;10.97;;;4.10;99.90;;;;;;5041419;28;20055;-68
2021/12/11 08:29:45;;;;;;;15.88;10.68;;;4.20;99.90;;;;;;5040934;28;20037;-68
2021/12/11 08:32:12;;;;;;;15.75;10.00;;;4.20;99.90;;;;;;5059770;28;20021;-68
2021/12/11 08:34:38;;;;;;;;;;;4.30;99.90;;;;;;5059886;28;20037;-69
2021/12/11 08:37:06;;;;;;;13.38;8.85;;;4.30;99.90;;;;;;5040693;28;20393;-68
2021/12/11 08:39:32;;;;;;;15.45;9.60;;;4.30;99.90;;;;;;5057319;28;20025;-68
2021/12/11 08:41:59;;;;;;;12.70;8.85;;;4.30;99.90;;;;;;5039124;28;20025;-68
2021/12/11 08:44:25;;;;;;;16.38;10.30;;;4.40;99.90;;;;;;5039057;28;20555;-68
2021/12/11 08:46:56;;;;;;;14.73;9.07;;;4.40;99.90;;;;;;5038813;28;20037;-68
2021/12/11 08:49:26;;;;;;;15.95;9.52;;;4.40;99.90;;;;;;5057019;28;20040;-68
2021/12/11 08:52:04;;;;;;;15.07;9.60;;;4.40;99.90;;;;;;5056783;28;20032;-68
2021/12/11 08:54:31;;;;;;;13.80;8.90;;;4.40;99.90;;;;;;5039072;28;20136;-68
2021/12/11 08:57:04;;;;;;;16.17;10.40;;;4.40;99.90;;;;;;5056559;28;20021;-69
2021/12/11 08:59:32;;;;;;;18.90;10.30;;;4.40;99.90;;;;;;5056511;28;20020;-66
2021/12/11 09:02:20;;;;;;;15.43;9.93;;;4.50;99.90;;;;;;5056167;28;20484;-68
2021/12/11 09:04:56;;;;;;;15.02;10.25;;;4.60;99.90;;;;;;5057108;28;20021;-72
2021/12/11 09:07:31;;;;;;;16.95;10.32;;;4.60;99.90;;;;;;5056708;28;20025;-69
2021/12/11 09:10:15;;;;;;;14.57;9.88;;;4.60;99.90;;;;;;5055410;28;20040;-69
2021/12/11 09:12:48;;;;;;;18.38;11.10;;;4.70;99.90;;;;;;5037973;28;20025;-68
2021/12/11 09:15:25;;;;;;;17.50;10.88;;;4.60;99.90;;;;;;5038000;28;20025;-69
2021/12/11 09:17:56;;;;;;;17.27;10.68;;;4.60;99.90;;;;;;5056073;28;20470;-69
2021/12/11 09:20:37;;;;;;;16.25;10.80;;;4.70;99.90;;;;;;5055920;28;20028;-70
2021/12/11 09:23:13;;;;;;;15.82;9.95;;;4.70;99.90;;;;;;5055863;28;20025;-68
2021/12/11 09:25:51;;;;;;;19.92;10.98;;;4.80;99.90;;;;;;5038231;28;20029;-69
2021/12/11 09:28:23;;;;;;;14.50;10.48;;;4.80;99.90;;;;;;5037854;28;20028;-67
2021/12/11 09:31:01;;;;;;;15.57;10.13;;;4.90;99.90;;;;;;5055819;28;20021;-69
2021/12/11 09:33:32;;;;;;;15.63;10.73;;;4.90;99.90;;;;;;5055775;28;20071;-69
2021/12/11 09:36:07;;;;;;;17.23;11.32;;;5.00;99.90;;;;;;5056039;28;20028;-68
2021/12/11 09:38:40;;;;;;;14.07;10.02;;;5.00;99.90;;;;;;5036363;28;20696;-68
2021/12/11 09:41:20;;;;;;;14.75;9.85;;;5.00;99.90;;;;;;5054606;28;20477;-69
2021/12/11 09:43:52;;;;;;;16.35;10.98;;;5.10;99.90;;;;;;5054910;28;20025;-68
2021/12/11 09:46:24;;;;;;;14.73;9.88;;;5.20;99.90;;;;;;5056266;28;20437;-70
2021/12/11 09:48:53;;;;;;;17.33;12.10;;;5.20;99.90;;;;;;5037909;28;20079;-68
2021/12/11 09:51:22;;;;;;;14.57;9.88;;;5.20;99.90;;;;;;5057077;28;20029;-70
2021/12/11 09:53:52;;;;;;;16.73;10.07;;;5.20;99.90;;;;;;5055867;28;20092;-68
2021/12/11 09:56:30;;;;;;;15.70;10.55;;;5.30;99.90;;;;;;5039169;28;20056;-70
2021/12/11 09:58:59;;;;;;;14.90;9.98;;;5.30;99.90;;;;;;5056774;28;20025;-68
2021/12/11 10:01:29;;;;;;;94.35;45.63;;;5.40;99.90;;;;;;5055868;28;20378;-69
2021/12/11 10:04:03;;;;;;;18.40;11.50;;;5.40;99.90;;;;;;5055522;28;20109;-69
2021/12/11 10:09:18;;;;;;;18.02;11.07;;;5.40;99.90;;;;;;5055776;28;20061;-69
2021/12/11 10:11:51;;;;;;;17.77;11.90;;;5.50;99.90;;;;;;5056227;28;20359;-69
2021/12/11 10:14:22;;;;;;;14.45;10.10;;;5.80;99.90;;;;;;5055873;28;20102;-68
2021/12/11 10:16:51;;;;;;;19.42;11.32;;;5.80;99.90;;;;;;5055552;28;20040;-70
2021/12/11 10:19:19;;;;;;;18.20;10.52;;;5.80;99.90;;;;;;5055753;28;20390;-70
2021/12/11 10:21:55;;;;;;;14.63;10.35;;;5.80;99.90;;;;;;5037133;28;20032;-70
2021/12/11 10:24:25;;;;;;;18.98;12.27;;;5.80;99.90;;;;;;5055363;28;20017;-70
2021/12/11 10:26:53;;;;;;;17.65;10.70;;;5.70;99.90;;;;;;5055293;28;20025;-69
2021/12/11 10:29:19;;;;;;;14.48;10.05;;;5.80;99.90;;;;;;5054990;28;20158;-69
2021/12/11 10:31:59;;;;;;;17.55;10.88;;;5.90;99.90;;;;;;5037390;28;20028;-68
2021/12/11 10:34:30;;;;;;;14.00;9.73;;;6.00;99.90;;;;;;5054966;28;20473;-68
2021/12/11 10:37:27;;;;;;;15.73;10.73;;;6.10;99.90;;;;;;5054368;28;20072;-68
2021/12/11 10:39:57;;;;;;;15.23;10.27;;;6.00;99.90;;;;;;5035578;28;20029;-67
2021/12/11 10:42:23;;;;;;;19.55;11.10;;;6.20;99.90;;;;;;5054602;28;20404;-68
2021/12/11 10:44:51;;;;;;;14.52;10.18;;;6.30;99.90;;;;;;5053984;28;20017;-68
2021/12/11 10:47:30;;;;;;;19.40;11.05;;;6.50;99.90;;;;;;5053897;28;20056;-68
2021/12/11 10:49:56;;;;;;;16.27;10.13;;;6.70;99.90;;;;;;5053724;28;20478;-67
2021/12/11 10:52:27;;;;;;;15.88;10.07;;;7.10;99.90;;;;;;5054309;28;20028;-67
2021/12/11 10:54:56;;;;;;;12.00;8.43;;;7.20;99.90;;;;;;5053876;28;20033;-67
2021/12/11 10:57:23;;;;;;;14.40;9.20;;;7.40;99.90;;;;;;5053931;28;20021;-68
2021/12/11 10:59:52;;;;;;;22.20;14.07;;;7.50;99.90;;;;;;5053672;28;20482;-68
2021/12/11 11:02:26;;;;;;;12.63;8.18;;;7.50;99.90;;;;;;5054024;28;20037;-69
2021/12/11 11:05:11;;;;;;;11.75;8.15;;;7.60;99.90;;;;;;5056889;28;20059;-68
2021/12/11 11:07:37;;;;;;;10.82;6.15;;;7.50;99.90;;;;;;5055991;28;20473;-67
2021/12/11 11:10:10;;;;;;;10.40;6.47;;;7.40;99.90;;;;;;5035678;28;20112;-68
2021/12/11 11:12:36;;;;;;;9.07;6.00;;;7.20;99.90;;;;;;5053449;28;20103;-69
2021/12/11 11:15:04;;;;;;;10.07;6.32;;;7.00;99.90;;;;;;5035393;28;20043;-68
2021/12/11 11:17:34;;;;;;;7.90;5.60;;;6.90;99.90;;;;;;5035427;28;20035;-68
2021/12/11 11:20:00;;;;;;;8.82;5.25;;;6.80;99.90;;;;;;5053396;28;20441;-68
2021/12/11 11:22:32;;;;;;;7.05;4.85;;;6.80;99.90;;;;;;5035138;28;20072;-67
2021/12/11 11:25:10;;;;;;;5.07;4.35;;;6.70;99.90;;;;;;5053260;28;20035;-67
2021/12/11 11:27:37;;;;;;;9.55;5.80;;;6.70;99.90;;;;;;5035411;28;20124;-70
2021/12/11 11:30:06;;;;;;;6.40;4.22;;;6.70;99.90;;;;;;5053526;28;20070;-68
2021/12/11 11:32:32;;;;;;;7.53;5.03;;;6.60;99.90;;;;;;5052880;28;20021;-68
2021/12/11 11:35:21;;;;;;;6.68;4.60;;;6.60;99.90;;;;;;5035580;28;20106;-68
2021/12/11 11:37:50;;;;;;;7.80;4.93;;;6.60;99.90;;;;;;5056461;28;20070;-68
2021/12/11 11:40:21;;;;;;;7.80;5.07;;;6.70;99.90;;;;;;5054998;28;20056;-68
2021/12/11 11:42:47;;;;;;;7.85;5.45;;;6.70;99.90;;;;;;5037536;28;20041;-69
2021/12/11 11:45:13;;;;;;;8.98;4.93;;;6.70;99.90;;;;;;5038314;28;20025;-69
2021/12/11 11:47:40;;;;;;;6.43;4.22;;;6.70;99.90;;;;;;5038707;28;20118;-68
2021/12/11 11:50:08;;;;;;;6.45;4.55;;;6.80;99.90;;;;;;5037435;28;20028;-69
2021/12/11 11:52:34;;;;;;;10.35;4.75;;;6.80;99.90;;;;;;5053928;28;20028;-68
2021/12/11 11:55:04;;;;;;;7.13;5.22;;;6.90;99.90;;;;;;5035659;28;20033;-69
2021/12/11 11:57:35;;;;;;;7.40;5.15;;;6.80;99.90;;;;;;5052983;28;20029;-69
2021/12/11 12:00:07;;;;;;;7.57;4.80;;;6.80;99.90;;;;;;5038008;28;20104;-69
2021/12/11 12:02:33;;;;;;;7.65;5.00;;;6.70;99.90;;;;;;5055582;28;20017;-68
2021/12/11 12:05:00;;;;;;;5.82;3.92;;;6.60;99.90;;;;;;5036801;28;20024;-69
2021/12/11 12:07:29;;;;;;;11.05;4.97;;;6.50;99.90;;;;;;5054044;28;20445;-69
2021/12/11 12:09:58;;;;;;;6.07;4.60;;;6.40;99.90;;;;;;5053377;28;20074;-69
2021/12/11 12:12:24;;;;;;;7.18;4.82;;;6.40;99.90;;;;;;5035210;28;20025;-69
2021/12/11 12:14:52;;;;;;;7.40;4.70;;;6.40;99.90;;;;;;5035467;28;20379;-69
2021/12/11 12:17:21;;;;;;;8.60;5.15;;;6.40;99.90;;;;;;5035480;28;20087;-69
2021/12/11 12:19:49;;;;;;;8.63;5.25;;;6.50;99.90;;;;;;5036466;28;20028;-69
2021/12/11 12:22:19;;;;;;;7.70;4.82;;;6.50;99.90;;;;;;5055955;28;20033;-69
2021/12/11 12:24:47;;;;;;;6.25;4.63;;;6.40;99.90;;;;;;5037661;28;20036;-70
2021/12/11 12:27:17;;;;;;;9.90;5.65;;;6.40;99.90;;;;;;5038048;28;20029;-69
2021/12/11 12:29:46;;;;;;;8.52;5.30;;;6.30;99.90;;;;;;5035838;28;20025;-68
2021/12/11 12:32:25;;;;;;;8.32;5.47;;;6.20;99.90;;;;;;5036190;28;20048;-69
2021/12/11 12:34:55;;;;;;;9.07;5.60;;;6.30;99.90;;;;;;5054633;28;20025;-69
2021/12/11 12:37:21;;;;;;;8.35;5.47;;;6.30;99.90;;;;;;5055352;28;20063;-69
2021/12/11 12:39:50;;;;;;;8.32;5.50;;;6.40;99.90;;;;;;5037534;28;20581;-69
2021/12/11 12:42:30;;;;;;;12.75;8.57;;;6.40;99.90;;;;;;5038330;28;20033;-68
2021/12/11 12:45:21;;;;;;;8.05;5.05;;;6.40;99.90;;;;;;5040874;28;20509;-70
2021/12/11 12:47:59;;;;;;;9.90;5.97;;;6.50;99.90;;;;;;5058689;28;20108;-69
2021/12/11 12:50:42;;;;;;;9.48;5.13;;;6.60;99.90;;;;;;5039897;28;20109;-69
2021/12/11 12:53:10;;;;;;;10.15;5.57;;;6.60;99.90;;;;;;5039091;28;20485;-69
2021/12/11 12:56:02;;;;;;;10.25;5.80;;;6.50;99.90;;;;;;5056906;28;20086;-69
2021/12/11 12:58:39;;;;;;;12.25;5.93;;;6.40;99.90;;;;;;5039787;28;20437;-68
2021/12/11 13:01:07;;;;;;;;;;;6.30;99.90;;;;;;5058330;28;20052;-69
2021/12/11 13:03:37;;;;;;;9.60;5.60;;;6.20;99.90;;;;;;5058731;28;19944;-70
2021/12/11 13:06:10;;;;;;;9.45;5.85;;;6.20;99.90;;;;;;5040279;28;20478;-69
2021/12/11 13:08:42;;;;;;;10.43;6.45;;;6.20;99.90;;;;;;5041919;28;20104;-68
2021/12/11 13:11:18;;;;;;;11.10;6.50;;;6.20;99.90;;;;;;5061999;28;20469;-69
2021/12/11 13:13:44;;;;;;;8.55;5.35;;;6.20;99.90;;;;;;5041272;28;20064;-69
2021/12/11 13:16:18;;;;;;;9.27;5.70;;;6.20;99.90;;;;;;5040696;28;20025;-69
2021/12/11 13:18:48;;;;;;;10.18;6.53;;;6.10;99.90;;;;;;5041460;28;20032;-69
2021/12/11 13:21:18;;;;;;;11.80;7.50;;;6.20;99.90;;;;;;5038927;28;20052;-68
2021/12/11 13:23:46;;;;;;;11.93;6.72;;;6.30;99.90;;;;;;5038689;28;20116;-68
2021/12/11 13:26:16;;;;;;;14.95;7.68;;;6.40;99.90;;;;;;5039719;28;20021;-70